sensor_id;sensor_type;location;lat;lon;timestamp;pressure;altitude;pressure_sealevel;temperature;humidity
80682;BME280;70045;40.200;44.582;2023-09-12T00:01:44;86108.78;;;16.83;52.26
80682;BME280;70045;40.200;44.582;2023-09-12T00:04:09;86105.13;;;16.90;51.71
80682;BME280;70045;40.200;44.582;2023-09-12T00:06:35;86112.56;;;16.91;51.75
80682;BME280;70045;40.200;44.582;2023-09-12T00:09:00;86108.91;;;16.89;51.80
80682;BME280;70045;40.200;44.582;2023-09-12T00:11:25;86115.06;;;16.86;51.76
80682;BME280;70045;40.200;44.582;2023-09-12T00:13:54;86109.66;;;16.80;52.96
80682;BME280;70045;40.200;44.582;2023-09-12T00:16:19;86120.56;;;16.79;52.89
80682;BME280;70045;40.200;44.582;2023-09-12T00:18:44;86121.78;;;16.68;53.33
80682;BME280;70045;40.200;44.582;2023-09-12T00:21:10;86100.91;;;16.50;53.53
80682;BME280;70045;40.200;44.582;2023-09-12T00:23:35;86112.69;;;16.54;53.78
80682;BME280;70045;40.200;44.582;2023-09-12T00:26:03;86105.09;;;16.56;53.60
80682;BME280;70045;40.200;44.582;2023-09-12T00:28:29;86104.78;;;16.64;52.82
80682;BME280;70045;40.200;44.582;2023-09-12T00:30:54;86107.19;;;16.76;52.27
80682;BME280;70045;40.200;44.582;2023-09-12T00:33:19;86093.50;;;16.82;52.28
80682;BME280;70045;40.200;44.582;2023-09-12T00:35:45;86094.09;;;16.86;52.21
80682;BME280;70045;40.200;44.582;2023-09-12T00:38:13;86096.13;;;16.91;52.42
80682;BME280;70045;40.200;44.582;2023-09-12T00:40:39;86101.03;;;16.98;52.68
80682;BME280;70045;40.200;44.582;2023-09-12T00:43:04;86103.06;;;16.94;52.12
80682;BME280;70045;40.200;44.582;2023-09-12T00:45:29;86108.47;;;16.90;52.35
80682;BME280;70045;40.200;44.582;2023-09-12T00:47:57;86108.91;;;16.89;52.89
80682;BME280;70045;40.200;44.582;2023-09-12T00:50:26;86106.59;;;16.91;53.43
80682;BME280;70045;40.200;44.582;2023-09-12T00:52:53;86093.94;;;16.89;52.65
80682;BME280;70045;40.200;44.582;2023-09-12T00:55:19;86097.88;;;16.85;53.06
80682;BME280;70045;40.200;44.582;2023-09-12T00:57:45;86099.63;;;16.88;52.59
80682;BME280;70045;40.200;44.582;2023-09-12T01:00:12;86086.25;;;16.76;53.07
80682;BME280;70045;40.200;44.582;2023-09-12T01:02:44;86112.56;;;16.91;53.30
80682;BME280;70045;40.200;44.582;2023-09-12T01:05:11;86113.97;;;16.92;52.71
80682;BME280;70045;40.200;44.582;2023-09-12T01:07:37;86125.75;;;16.97;52.31
80682;BME280;70045;40.200;44.582;2023-09-12T01:10:07;86122.69;;;16.99;53.14
80682;BME280;70045;40.200;44.582;2023-09-12T01:12:33;86121.09;;;17.01;52.46
80682;BME280;70045;40.200;44.582;2023-09-12T01:15:01;86122.38;;;17.06;52.68
80682;BME280;70045;40.200;44.582;2023-09-12T01:17:27;86115.38;;;17.03;52.25
80682;BME280;70045;40.200;44.582;2023-09-12T01:19:53;86117.28;;;17.02;52.27
80682;BME280;70045;40.200;44.582;2023-09-12T01:27:59;86117.63;;;16.95;53.43
80682;BME280;70045;40.200;44.582;2023-09-12T01:30:27;86128.25;;;16.91;53.15
80682;BME280;70045;40.200;44.582;2023-09-12T01:32:53;86137.69;;;16.98;52.94
80682;BME280;70045;40.200;44.582;2023-09-12T01:35:22;86133.00;;;17.02;53.75
80682;BME280;70045;40.200;44.582;2023-09-12T01:37:47;86135.34;;;17.00;53.80
80682;BME280;70045;40.200;44.582;2023-09-12T01:40:12;86139.88;;;16.90;53.97
80682;BME280;70045;40.200;44.582;2023-09-12T01:42:45;86137.09;;;16.94;54.48
80682;BME280;70045;40.200;44.582;2023-09-12T01:45:14;86135.69;;;16.93;54.20
80682;BME280;70045;40.200;44.582;2023-09-12T01:47:45;86129.25;;;16.94;54.54
80682;BME280;70045;40.200;44.582;2023-09-12T01:50:12;86137.44;;;16.87;54.45
80682;BME280;70045;40.200;44.582;2023-09-12T01:52:39;86139.63;;;16.88;54.30
80682;BME280;70045;40.200;44.582;2023-09-12T01:55:06;86139.00;;;16.93;54.67
80682;BME280;70045;40.200;44.582;2023-09-12T01:57:32;86125.03;;;16.97;54.69
80682;BME280;70045;40.200;44.582;2023-09-12T02:00:00;86120.50;;;16.97;54.67
80682;BME280;70045;40.200;44.582;2023-09-12T02:02:26;86135.34;;;17.00;53.56
80682;BME280;70045;40.200;44.582;2023-09-12T02:05:09;86131.25;;;17.08;53.95
80682;BME280;70045;40.200;44.582;2023-09-12T02:07:37;86136.31;;;17.12;53.10
80682;BME280;70045;40.200;44.582;2023-09-12T02:10:06;86135.72;;;17.17;53.24
80682;BME280;70045;40.200;44.582;2023-09-12T02:12:32;86134.97;;;17.17;52.81
80682;BME280;70045;40.200;44.582;2023-09-12T02:14:57;86125.94;;;17.18;52.69
80682;BME280;70045;40.200;44.582;2023-09-12T02:17:23;86130.47;;;17.17;52.85
80682;BME280;70045;40.200;44.582;2023-09-12T02:19:48;86120.88;;;17.14;53.03
80682;BME280;70045;40.200;44.582;2023-09-12T02:22:16;86119.25;;;17.17;53.16
80682;BME280;70045;40.200;44.582;2023-09-12T02:24:42;86111.28;;;17.11;52.91
80682;BME280;70045;40.200;44.582;2023-09-12T02:27:07;86121.91;;;17.07;52.87
80682;BME280;70045;40.200;44.582;2023-09-12T02:29:33;86122.47;;;17.11;53.18
80682;BME280;70045;40.200;44.582;2023-09-12T02:31:58;86125.78;;;17.21;53.08
80682;BME280;70045;40.200;44.582;2023-09-12T02:34:26;86133.47;;;17.25;53.80
80682;BME280;70045;40.200;44.582;2023-09-12T02:36:52;86134.75;;;17.29;52.93
80682;BME280;70045;40.200;44.582;2023-09-12T02:39:17;86136.31;;;17.36;53.24
80682;BME280;70045;40.200;44.582;2023-09-12T02:41:43;86141.69;;;17.42;52.80
80682;BME280;70045;40.200;44.582;2023-09-12T02:44:08;86140.22;;;17.41;52.77
80682;BME280;70045;40.200;44.582;2023-09-12T02:46:37;86137.72;;;17.46;53.32
80682;BME280;70045;40.200;44.582;2023-09-12T02:49:02;86140.91;;;17.50;53.05
80682;BME280;70045;40.200;44.582;2023-09-12T02:51:28;86147.34;;;17.40;53.15
80682;BME280;70045;40.200;44.582;2023-09-12T02:53:53;86130.50;;;17.08;53.30
80682;BME280;70045;40.200;44.582;2023-09-12T02:56:19;86151.28;;;17.11;52.92
80682;BME280;70045;40.200;44.582;2023-09-12T02:58:47;86171.81;;;17.13;53.28
80682;BME280;70045;40.200;44.582;2023-09-12T03:01:17;86167.75;;;17.03;54.00
80682;BME280;70045;40.200;44.582;2023-09-12T03:03:42;86174.03;;;17.05;53.32
80682;BME280;70045;40.200;44.582;2023-09-12T03:06:08;86180.84;;;17.12;53.81
80682;BME280;70045;40.200;44.582;2023-09-12T03:08:33;86180.41;;;17.13;53.54
80682;BME280;70045;40.200;44.582;2023-09-12T03:11:01;86168.47;;;17.12;53.37
80682;BME280;70045;40.200;44.582;2023-09-12T03:13:27;86182.91;;;17.32;53.22
80682;BME280;70045;40.200;44.582;2023-09-12T03:15:53;86180.25;;;17.41;53.34
80682;BME280;70045;40.200;44.582;2023-09-12T03:18:18;86180.53;;;17.43;53.83
80682;BME280;70045;40.200;44.582;2023-09-12T03:20:44;86179.41;;;17.35;53.54
80682;BME280;70045;40.200;44.582;2023-09-12T03:23:12;86184.09;;;17.31;54.88
80682;BME280;70045;40.200;44.582;2023-09-12T03:25:38;86168.66;;;17.33;54.04
80682;BME280;70045;40.200;44.582;2023-09-12T03:28:04;86170.56;;;17.33;54.29
80682;BME280;70045;40.200;44.582;2023-09-12T03:30:32;86167.25;;;17.23;54.32
80682;BME280;70045;40.200;44.582;2023-09-12T03:32:58;86172.50;;;17.23;54.27
80682;BME280;70045;40.200;44.582;2023-09-12T03:35:28;86164.53;;;17.17;55.99
80682;BME280;70045;40.200;44.582;2023-09-12T03:37:53;86164.84;;;17.10;55.06
80682;BME280;70045;40.200;44.582;2023-09-12T03:40:19;86158.31;;;17.05;56.32
80682;BME280;70045;40.200;44.582;2023-09-12T03:42:45;86166.34;;;17.02;55.84
80682;BME280;70045;40.200;44.582;2023-09-12T03:45:10;86168.78;;;17.05;56.54
80682;BME280;70045;40.200;44.582;2023-09-12T03:47:38;86169.34;;;17.09;56.52
80682;BME280;70045;40.200;44.582;2023-09-12T03:50:04;86179.50;;;17.17;55.74
80682;BME280;70045;40.200;44.582;2023-09-12T03:52:30;86182.53;;;17.24;55.56
80682;BME280;70045;40.200;44.582;2023-09-12T03:54:55;86175.91;;;17.38;55.55
80682;BME280;70045;40.200;44.582;2023-09-12T03:57:21;86183.44;;;17.45;56.07
80682;BME280;70045;40.200;44.582;2023-09-12T03:59:49;86174.34;;;17.56;56.37
80682;BME280;70045;40.200;44.582;2023-09-12T04:02:14;86166.88;;;17.63;55.82
80682;BME280;70045;40.200;44.582;2023-09-12T04:04:40;86163.53;;;17.63;54.97
80682;BME280;70045;40.200;44.582;2023-09-12T04:07:05;86161.75;;;17.69;54.96
80682;BME280;70045;40.200;44.582;2023-09-12T04:09:31;86169.16;;;17.70;55.25
80682;BME280;70045;40.200;44.582;2023-09-12T04:11:59;86175.91;;;17.62;55.78
80682;BME280;70045;40.200;44.582;2023-09-12T04:14:25;86174.47;;;17.61;55.29
80682;BME280;70045;40.200;44.582;2023-09-12T04:16:50;86175.84;;;17.72;55.59
80682;BME280;70045;40.200;44.582;2023-09-12T04:19:16;86181.03;;;17.81;55.01
80682;BME280;70045;40.200;44.582;2023-09-12T04:21:41;86177.06;;;17.85;54.07
80682;BME280;70045;40.200;44.582;2023-09-12T04:24:09;86171.81;;;17.85;53.76
80682;BME280;70045;40.200;44.582;2023-09-12T04:26:35;86175.78;;;17.81;53.54
80682;BME280;70045;40.200;44.582;2023-09-12T04:29:00;86173.31;;;17.77;53.38
80682;BME280;70045;40.200;44.582;2023-09-12T04:31:25;86177.63;;;17.90;53.20
80682;BME280;70045;40.200;44.582;2023-09-12T04:33:52;86190.88;;;17.95;53.45
80682;BME280;70045;40.200;44.582;2023-09-12T04:36:20;86201.81;;;17.94;54.12
80682;BME280;70045;40.200;44.582;2023-09-12T04:38:46;86191.69;;;17.77;52.69
80682;BME280;70045;40.200;44.582;2023-09-12T04:41:12;86205.03;;;17.64;53.12
80682;BME280;70045;40.200;44.582;2023-09-12T04:43:38;86216.22;;;17.65;54.19
80682;BME280;70045;40.200;44.582;2023-09-12T04:46:04;86204.31;;;17.64;53.64
80682;BME280;70045;40.200;44.582;2023-09-12T04:48:32;86209.94;;;17.72;53.85
80682;BME280;70045;40.200;44.582;2023-09-12T04:50:57;86215.28;;;17.86;53.24
80682;BME280;70045;40.200;44.582;2023-09-12T04:53:23;86219.81;;;18.01;53.56
80682;BME280;70045;40.200;44.582;2023-09-12T04:55:48;86223.56;;;18.09;53.73
80682;BME280;70045;40.200;44.582;2023-09-12T04:58:14;86216.78;;;18.17;53.04
80682;BME280;70045;40.200;44.582;2023-09-12T05:00:42;86220.25;;;18.23;53.33
80682;BME280;70045;40.200;44.582;2023-09-12T05:03:07;86210.47;;;18.24;52.84
80682;BME280;70045;40.200;44.582;2023-09-12T05:05:34;86228.38;;;18.25;53.58
80682;BME280;70045;40.200;44.582;2023-09-12T05:08:00;86227.28;;;18.17;53.19
80682;BME280;70045;40.200;44.582;2023-09-12T05:10:25;86226.66;;;18.22;53.06
80682;BME280;70045;40.200;44.582;2023-09-12T05:12:53;86224.34;;;18.24;53.92
80682;BME280;70045;40.200;44.582;2023-09-12T05:15:19;86227.69;;;18.25;53.74
80682;BME280;70045;40.200;44.582;2023-09-12T05:17:44;86241.50;;;18.25;53.80
80682;BME280;70045;40.200;44.582;2023-09-12T05:20:10;86236.44;;;18.22;53.82
80682;BME280;70045;40.200;44.582;2023-09-12T05:22:35;86239.59;;;18.26;54.38
80682;BME280;70045;40.200;44.582;2023-09-12T05:25:04;86242.91;;;18.36;54.36
80682;BME280;70045;40.200;44.582;2023-09-12T05:27:29;86237.81;;;18.32;53.91
80682;BME280;70045;40.200;44.582;2023-09-12T05:29:55;86252.56;;;18.30;54.14
80682;BME280;70045;40.200;44.582;2023-09-12T05:32:20;86248.66;;;18.25;54.16
80682;BME280;70045;40.200;44.582;2023-09-12T05:34:45;86263.13;;;18.20;54.47
80682;BME280;70045;40.200;44.582;2023-09-12T05:37:14;86264.34;;;18.10;54.85
80682;BME280;70045;40.200;44.582;2023-09-12T05:39:39;86266.50;;;17.97;54.29
80682;BME280;70045;40.200;44.582;2023-09-12T05:42:05;86258.94;;;17.90;54.18
80682;BME280;70045;40.200;44.582;2023-09-12T05:44:30;86264.94;;;17.90;54.50
80682;BME280;70045;40.200;44.582;2023-09-12T05:46:55;86264.75;;;17.84;54.28
80682;BME280;70045;40.200;44.582;2023-09-12T05:49:23;86264.75;;;17.84;54.47
80682;BME280;70045;40.200;44.582;2023-09-12T05:51:49;86267.63;;;17.72;55.21
80682;BME280;70045;40.200;44.582;2023-09-12T05:54:14;86260.59;;;17.44;56.07
80682;BME280;70045;40.200;44.582;2023-09-12T05:56:40;86264.94;;;17.47;54.77
80682;BME280;70045;40.200;44.582;2023-09-12T05:59:06;86268.28;;;17.57;55.14
80682;BME280;70045;40.200;44.582;2023-09-12T06:01:34;86271.81;;;17.78;54.25
80682;BME280;70045;40.200;44.582;2023-09-12T06:03:59;86272.22;;;17.86;54.56
80682;BME280;70045;40.200;44.582;2023-09-12T06:06:27;86262.13;;;17.94;54.76
80682;BME280;70045;40.200;44.582;2023-09-12T06:08:53;86271.22;;;18.08;54.74
80682;BME280;70045;40.200;44.582;2023-09-12T06:11:19;86274.00;;;18.28;54.86
80682;BME280;70045;40.200;44.582;2023-09-12T06:13:47;86274.31;;;18.45;54.13
80682;BME280;70045;40.200;44.582;2023-09-12T06:16:12;86275.09;;;18.36;53.73
80682;BME280;70045;40.200;44.582;2023-09-12T06:18:38;86279.72;;;18.27;54.54
80682;BME280;70045;40.200;44.582;2023-09-12T06:21:03;86282.16;;;18.30;54.67
80682;BME280;70045;40.200;44.582;2023-09-12T06:23:29;86284.50;;;18.52;53.77
80682;BME280;70045;40.200;44.582;2023-09-12T06:25:57;86276.81;;;18.63;53.32
80682;BME280;70045;40.200;44.582;2023-09-12T06:28:30;86276.09;;;18.78;53.10
80682;BME280;70045;40.200;44.582;2023-09-12T06:30:56;86280.13;;;18.88;52.71
80682;BME280;70045;40.200;44.582;2023-09-12T06:33:21;86273.97;;;18.91;51.86
80682;BME280;70045;40.200;44.582;2023-09-12T06:35:50;86290.47;;;19.07;51.54
80682;BME280;70045;40.200;44.582;2023-09-12T06:38:19;86286.56;;;19.17;51.20
80682;BME280;70045;40.200;44.582;2023-09-12T06:40:45;86302.06;;;19.30;51.09
80682;BME280;70045;40.200;44.582;2023-09-12T06:43:11;86303.34;;;19.34;50.94
80682;BME280;70045;40.200;44.582;2023-09-12T06:45:36;86294.09;;;19.39;50.70
80682;BME280;70045;40.200;44.582;2023-09-12T06:48:02;86302.44;;;19.37;50.38
80682;BME280;70045;40.200;44.582;2023-09-12T06:50:30;86298.53;;;19.48;50.18
80682;BME280;70045;40.200;44.582;2023-09-12T06:52:55;86300.97;;;19.51;51.02
80682;BME280;70045;40.200;44.582;2023-09-12T06:55:21;86299.50;;;19.65;50.47
80682;BME280;70045;40.200;44.582;2023-09-12T06:57:46;86301.19;;;19.68;50.31
80682;BME280;70045;40.200;44.582;2023-09-12T07:00:12;86303.31;;;19.64;50.13
80682;BME280;70045;40.200;44.582;2023-09-12T07:02:41;86299.31;;;19.54;50.63
80682;BME280;70045;40.200;44.582;2023-09-12T07:05:06;86299.88;;;19.43;50.65
80682;BME280;70045;40.200;44.582;2023-09-12T07:07:33;86302.41;;;19.23;51.20
80682;BME280;70045;40.200;44.582;2023-09-12T07:09:58;86313.38;;;19.06;51.33
80682;BME280;70045;40.200;44.582;2023-09-12T07:12:23;86314.00;;;19.16;51.50
80682;BME280;70045;40.200;44.582;2023-09-12T07:14:54;86308.56;;;19.19;51.04
80682;BME280;70045;40.200;44.582;2023-09-12T07:17:20;86311.63;;;18.88;52.41
80682;BME280;70045;40.200;44.582;2023-09-12T07:19:45;86310.19;;;18.87;52.32
80682;BME280;70045;40.200;44.582;2023-09-12T07:22:11;86310.75;;;18.91;51.16
80682;BME280;70045;40.200;44.582;2023-09-12T07:24:36;86303.94;;;18.85;51.70
80682;BME280;70045;40.200;44.582;2023-09-12T07:27:05;86302.75;;;18.86;51.79
80682;BME280;70045;40.200;44.582;2023-09-12T07:29:32;86284.41;;;18.76;51.94
80682;BME280;70045;40.200;44.582;2023-09-12T07:31:58;86312.53;;;18.85;52.07
80682;BME280;70045;40.200;44.582;2023-09-12T07:34:24;86314.34;;;18.94;51.48
80682;BME280;70045;40.200;44.582;2023-09-12T07:36:52;86302.75;;;18.86;51.26
80682;BME280;70045;40.200;44.582;2023-09-12T07:39:21;86296.72;;;18.70;51.74
80682;BME280;70045;40.200;44.582;2023-09-12T07:41:47;86308.75;;;18.86;51.62
80682;BME280;70045;40.200;44.582;2023-09-12T07:44:12;86307.13;;;18.89;51.84
80682;BME280;70045;40.200;44.582;2023-09-12T07:46:38;86292.97;;;18.47;53.57
80682;BME280;70045;40.200;44.582;2023-09-12T07:49:03;86312.63;;;18.52;52.95
80682;BME280;70045;40.200;44.582;2023-09-12T07:51:31;86309.66;;;18.35;54.04
80682;BME280;70045;40.200;44.582;2023-09-12T07:53:57;86309.47;;;18.23;53.35
80682;BME280;70045;40.200;44.582;2023-09-12T07:56:22;86311.84;;;18.36;52.81
80682;BME280;70045;40.200;44.582;2023-09-12T07:58:48;86315.25;;;18.28;53.52
80682;BME280;70045;40.200;44.582;2023-09-12T08:01:13;86310.59;;;18.32;53.30
80682;BME280;70045;40.200;44.582;2023-09-12T08:03:42;86298.28;;;18.38;53.34
80682;BME280;70045;40.200;44.582;2023-09-12T08:06:07;86299.44;;;18.61;52.57
80682;BME280;70045;40.200;44.582;2023-09-12T08:08:33;86296.03;;;18.70;52.78
80682;BME280;70045;40.200;44.582;2023-09-12T08:10:58;86303.47;;;18.86;52.24
80682;BME280;70045;40.200;44.582;2023-09-12T08:13:28;86301.41;;;18.90;53.14
80682;BME280;70045;40.200;44.582;2023-09-12T08:15:56;86298.41;;;18.83;51.64
80682;BME280;70045;40.200;44.582;2023-09-12T08:18:28;86310.19;;;18.87;52.03
80682;BME280;70045;40.200;44.582;2023-09-12T08:20:54;86305.59;;;18.73;51.23
80682;BME280;70045;40.200;44.582;2023-09-12T08:23:19;86309.19;;;18.60;52.00
80682;BME280;70045;40.200;44.582;2023-09-12T08:25:44;86309.59;;;18.68;51.85
80682;BME280;70045;40.200;44.582;2023-09-12T08:28:15;86312.84;;;18.63;52.24
80682;BME280;70045;40.200;44.582;2023-09-12T08:30:40;86307.16;;;18.65;52.20
80682;BME280;70045;40.200;44.582;2023-09-12T08:33:05;86308.50;;;18.36;51.50
80682;BME280;70045;40.200;44.582;2023-09-12T08:35:31;86300.69;;;18.27;52.30
80682;BME280;70045;40.200;44.582;2023-09-12T08:37:56;86298.78;;;18.27;52.97
80682;BME280;70045;40.200;44.582;2023-09-12T08:40:24;86297.91;;;18.30;50.00
80682;BME280;70045;40.200;44.582;2023-09-12T08:42:51;86297.44;;;18.56;50.45
80682;BME280;70045;40.200;44.582;2023-09-12T08:45:18;86304.84;;;18.57;48.08
80682;BME280;70045;40.200;44.582;2023-09-12T08:47:49;86293.38;;;18.70;47.66
80682;BME280;70045;40.200;44.582;2023-09-12T08:50:15;86310.56;;;18.56;45.54
80682;BME280;70045;40.200;44.582;2023-09-12T08:52:46;86306.22;;;18.29;45.59
80682;BME280;70045;40.200;44.582;2023-09-12T08:55:12;86311.53;;;18.19;45.98
80682;BME280;70045;40.200;44.582;2023-09-12T08:57:41;86325.75;;;18.03;46.67
80682;BME280;70045;40.200;44.582;2023-09-12T09:00:08;86323.91;;;17.85;47.88
80682;BME280;70045;40.200;44.582;2023-09-12T09:02:36;86314.91;;;17.86;47.14
80682;BME280;70045;40.200;44.582;2023-09-12T09:05:06;86321.44;;;17.91;48.02
80682;BME280;70045;40.200;44.582;2023-09-12T09:07:33;86317.50;;;17.96;47.17
80682;BME280;70045;40.200;44.582;2023-09-12T09:10:02;86319.66;;;17.97;46.24
80682;BME280;70045;40.200;44.582;2023-09-12T09:12:27;86306.66;;;18.03;45.45
80682;BME280;70045;40.200;44.582;2023-09-12T09:14:53;86314.72;;;18.23;45.13
80682;BME280;70045;40.200;44.582;2023-09-12T09:17:21;86315.50;;;18.39;44.98
80682;BME280;70045;40.200;44.582;2023-09-12T09:19:46;86312.59;;;18.37;44.76
80682;BME280;70045;40.200;44.582;2023-09-12T09:22:12;86324.59;;;18.53;45.63
80682;BME280;70045;40.200;44.582;2023-09-12T09:24:37;86316.09;;;18.73;45.29
80682;BME280;70045;40.200;44.582;2023-09-12T09:27:03;86320.13;;;18.83;45.90
80682;BME280;70045;40.200;44.582;2023-09-12T09:29:31;86334.28;;;18.86;46.21
80682;BME280;70045;40.200;44.582;2023-09-12T09:31:59;86333.28;;;18.83;46.13
80682;BME280;70045;40.200;44.582;2023-09-12T09:34:25;86349.19;;;18.79;46.18
80682;BME280;70045;40.200;44.582;2023-09-12T09:36:52;86359.53;;;18.83;46.28
80682;BME280;70045;40.200;44.582;2023-09-12T09:39:19;86365.06;;;18.85;46.25
80682;BME280;70045;40.200;44.582;2023-09-12T09:41:49;86347.34;;;18.71;47.02
80682;BME280;70045;40.200;44.582;2023-09-12T09:44:14;86366.84;;;18.79;47.16
80682;BME280;70045;40.200;44.582;2023-09-12T09:46:43;86361.75;;;18.75;47.70
80682;BME280;70045;40.200;44.582;2023-09-12T09:49:15;86383.66;;;18.72;48.54
80682;BME280;70045;40.200;44.582;2023-09-12T09:51:41;86379.47;;;18.66;47.82
80682;BME280;70045;40.200;44.582;2023-09-12T09:54:11;86398.47;;;18.60;49.32
80682;BME280;70045;40.200;44.582;2023-09-12T09:56:56;86402.13;;;18.30;49.40
80682;BME280;70045;40.200;44.582;2023-09-12T09:59:23;86398.75;;;18.05;50.74
80682;BME280;70045;40.200;44.582;2023-09-12T10:01:50;86398.19;;;18.01;51.11
80682;BME280;70045;40.200;44.582;2023-09-12T10:04:22;86390.97;;;17.86;53.67
80682;BME280;70045;40.200;44.582;2023-09-12T10:06:49;86389.88;;;17.50;54.96
80682;BME280;70045;40.200;44.582;2023-09-12T10:09:30;86393.56;;;17.25;55.53
80682;BME280;70045;40.200;44.582;2023-09-12T10:11:57;86392.84;;;17.06;55.29
80682;BME280;70045;40.200;44.582;2023-09-12T10:14:27;86377.44;;;16.90;57.43
80682;BME280;70045;40.200;44.582;2023-09-12T10:17:01;86384.72;;;16.95;55.24
80682;BME280;70045;40.200;44.582;2023-09-12T10:19:46;86396.34;;;16.75;56.24
80682;BME280;70045;40.200;44.582;2023-09-12T10:22:27;86390.50;;;16.62;56.65
80682;BME280;70045;40.200;44.582;2023-09-12T10:24:56;86403.59;;;16.53;56.46
80682;BME280;70045;40.200;44.582;2023-09-12T10:27:24;86402.59;;;16.60;56.56
80682;BME280;70045;40.200;44.582;2023-09-12T10:29:49;86404.91;;;16.67;57.44
80682;BME280;70045;40.200;44.582;2023-09-12T10:32:16;86393.13;;;16.62;56.82
80682;BME280;70045;40.200;44.582;2023-09-12T10:34:44;86405.78;;;16.54;55.97
80682;BME280;70045;40.200;44.582;2023-09-12T10:37:15;86409.69;;;16.50;57.41
80682;BME280;70045;40.200;44.582;2023-09-12T10:39:43;86403.31;;;16.51;57.58
80682;BME280;70045;40.200;44.582;2023-09-12T10:42:09;86394.41;;;16.39;57.68
80682;BME280;70045;40.200;44.582;2023-09-12T10:44:35;86399.66;;;16.39;58.85
80682;BME280;70045;40.200;44.582;2023-09-12T10:47:01;86389.91;;;16.40;60.11
80682;BME280;70045;40.200;44.582;2023-09-12T10:49:32;86392.22;;;16.37;60.05
80682;BME280;70045;40.200;44.582;2023-09-12T10:51:57;86391.75;;;16.30;60.87
80682;BME280;70045;40.200;44.582;2023-09-12T10:54:25;86402.84;;;16.34;61.01
80682;BME280;70045;40.200;44.582;2023-09-12T10:57:07;86405.28;;;16.28;59.81
80682;BME280;70045;40.200;44.582;2023-09-12T10:59:35;86407.59;;;16.26;61.70
80682;BME280;70045;40.200;44.582;2023-09-12T11:04:54;86408.63;;;16.29;58.82
80682;BME280;70045;40.200;44.582;2023-09-12T11:12:38;86389.72;;;16.25;57.82
80682;BME280;70045;40.200;44.582;2023-09-12T11:15:04;86386.66;;;16.26;58.01
80682;BME280;70045;40.200;44.582;2023-09-12T11:17:30;86391.66;;;16.43;58.74
80682;BME280;70045;40.200;44.582;2023-09-12T11:20:06;86380.44;;;16.24;59.42
80682;BME280;70045;40.200;44.582;2023-09-12T11:22:31;86401.94;;;16.28;59.64
80682;BME280;70045;40.200;44.582;2023-09-12T11:24:57;86404.53;;;16.09;60.55
80682;BME280;70045;40.200;44.582;2023-09-12T11:27:31;86404.91;;;15.98;61.18
80682;BME280;70045;40.200;44.582;2023-09-12T11:30:06;86420.72;;;15.86;63.64
80682;BME280;70045;40.200;44.582;2023-09-12T11:32:35;86413.19;;;15.97;nan
80682;BME280;70045;40.200;44.582;2023-09-12T11:35:05;86422.38;;;16.11;62.04
80682;BME280;70045;40.200;44.582;2023-09-12T11:37:31;86411.66;;;16.18;61.05
80682;BME280;70045;40.200;44.582;2023-09-12T11:39:57;86392.94;;;16.29;60.10
80682;BME280;70045;40.200;44.582;2023-09-12T11:42:22;86356.75;;;16.27;60.42
80682;BME280;70045;40.200;44.582;2023-09-12T11:44:51;86380.16;;;16.31;61.50
80682;BME280;70045;40.200;44.582;2023-09-12T11:47:17;86385.81;;;16.29;60.33
80682;BME280;70045;40.200;44.582;2023-09-12T11:49:43;86406.03;;;16.29;59.89
80682;BME280;70045;40.200;44.582;2023-09-12T11:52:15;86390.41;;;16.07;58.91
80682;BME280;70045;40.200;44.582;2023-09-12T11:54:41;86415.78;;;16.47;59.14
80682;BME280;70045;40.200;44.582;2023-09-12T11:57:10;86404.16;;;16.48;59.35
80682;BME280;70045;40.200;44.582;2023-09-12T11:59:41;86415.84;;;16.84;58.97
80682;BME280;70045;40.200;44.582;2023-09-12T12:02:10;86412.34;;;16.78;59.14
80682;BME280;70045;40.200;44.582;2023-09-12T12:04:37;86416.25;;;16.73;58.65
80682;BME280;70045;40.200;44.582;2023-09-12T12:07:03;86420.97;;;16.87;58.53
80682;BME280;70045;40.200;44.582;2023-09-12T12:09:32;86414.13;;;17.08;58.44
80682;BME280;70045;40.200;44.582;2023-09-12T12:12:13;86419.63;;;17.10;57.09
80682;BME280;70045;40.200;44.582;2023-09-12T12:14:40;86353.56;;;16.60;56.81
80682;BME280;70045;40.200;44.582;2023-09-12T12:17:08;86417.00;;;16.92;56.04
80682;BME280;70045;40.200;44.582;2023-09-12T12:19:39;86431.44;;;17.15;55.96
80682;BME280;70045;40.200;44.582;2023-09-12T12:22:05;86430.69;;;17.24;55.57
80682;BME280;70045;40.200;44.582;2023-09-12T12:24:46;86428.63;;;17.37;55.05
80682;BME280;70045;40.200;44.582;2023-09-12T12:27:14;86428.91;;;17.48;54.70
80682;BME280;70045;40.200;44.582;2023-09-12T12:29:43;86432.69;;;17.47;54.61
80682;BME280;70045;40.200;44.582;2023-09-12T12:32:08;86422.34;;;17.53;54.49
80682;BME280;70045;40.200;44.582;2023-09-12T12:34:34;86428.44;;;17.59;55.32
80682;BME280;70045;40.200;44.582;2023-09-12T12:36:59;86426.25;;;17.58;54.38
80682;BME280;70045;40.200;44.582;2023-09-12T12:39:24;86417.44;;;17.37;54.13
80682;BME280;70045;40.200;44.582;2023-09-12T12:41:53;86422.09;;;17.33;54.39
80682;BME280;70045;40.200;44.582;2023-09-12T12:44:19;86419.31;;;17.27;54.49
80682;BME280;70045;40.200;44.582;2023-09-12T12:46:52;86409.75;;;17.05;54.81
80682;BME280;70045;40.200;44.582;2023-09-12T12:49:19;86423.13;;;17.26;55.30
80682;BME280;70045;40.200;44.582;2023-09-12T12:51:45;86425.72;;;17.35;55.19
80682;BME280;70045;40.200;44.582;2023-09-12T12:54:14;86414.09;;;17.36;54.88
80682;BME280;70045;40.200;44.582;2023-09-12T12:56:40;86425.16;;;17.31;55.40
80682;BME280;70045;40.200;44.582;2023-09-12T12:59:07;86427.75;;;17.40;54.78
80682;BME280;70045;40.200;44.582;2023-09-12T13:01:37;86428.63;;;17.37;54.84
80682;BME280;70045;40.200;44.582;2023-09-12T13:04:05;86436.19;;;17.35;55.02